sensor_id;sensor_type;location;lat;lon;timestamp;pressure;altitude;pressure_sealevel;temperature;humidity
6435;BME280;3250;42.694;23.278;2023-05-16T00:01:20;94540.22;;;14.16;96.39
6435;BME280;3250;42.694;23.278;2023-05-16T00:03:46;94539.06;;;14.12;96.48
6435;BME280;3250;42.694;23.278;2023-05-16T00:06:11;94537.78;;;13.97;97.14
6435;BME280;3250;42.694;23.278;2023-05-16T00:08:37;94512.28;;;13.75;97.88
6435;BME280;3250;42.694;23.278;2023-05-16T00:11:02;94535.53;;;13.89;97.95
6435;BME280;3250;42.694;23.278;2023-05-16T00:13:28;94528.97;;;13.92;97.61
6435;BME280;3250;42.694;23.278;2023-05-16T00:15:54;94505.84;;;13.87;97.57
6435;BME280;3250;42.694;23.278;2023-05-16T00:18:20;94526.22;;;13.87;97.86
6435;BME280;3250;42.694;23.278;2023-05-16T00:20:47;94521.41;;;13.84;98.06
6435;BME280;3250;42.694;23.278;2023-05-16T00:23:13;94533.13;;;13.88;97.97
6435;BME280;3250;42.694;23.278;2023-05-16T00:25:39;94531.34;;;13.93;97.71
6435;BME280;3250;42.694;23.278;2023-05-16T00:28:05;94523.19;;;13.95;97.74
6435;BME280;3250;42.694;23.278;2023-05-16T00:30:30;94494.69;;;13.85;97.56
6435;BME280;3250;42.694;23.278;2023-05-16T00:32:56;94508.03;;;13.90;97.71
6435;BME280;3250;42.694;23.278;2023-05-16T00:35:22;94506.50;;;13.94;97.72
6435;BME280;3250;42.694;23.278;2023-05-16T00:37:49;94487.41;;;13.92;97.69
6435;BME280;3250;42.694;23.278;2023-05-16T00:40:14;94492.22;;;13.95;97.46
6435;BME280;3250;42.694;23.278;2023-05-16T00:42:39;94483.97;;;13.92;97.48
6435;BME280;3250;42.694;23.278;2023-05-16T00:45:05;94492.63;;;14.04;97.57
6435;BME280;3250;42.694;23.278;2023-05-16T00:47:31;94478.81;;;13.85;98.15
6435;BME280;3250;42.694;23.278;2023-05-16T00:49:57;94493.09;;;14.01;97.91
6435;BME280;3250;42.694;23.278;2023-05-16T00:52:23;94478.81;;;14.02;97.97
6435;BME280;3250;42.694;23.278;2023-05-16T00:54:49;94474.28;;;13.97;98.00
6435;BME280;3250;42.694;23.278;2023-05-16T00:57:15;94463.13;;;13.95;97.49
6435;BME280;3250;42.694;23.278;2023-05-16T00:59:41;94481.00;;;14.05;97.98
6435;BME280;3250;42.694;23.278;2023-05-16T01:02:08;94455.97;;;13.96;97.61
6435;BME280;3250;42.694;23.278;2023-05-16T01:04:34;94470.00;;;14.13;97.76
6435;BME280;3250;42.694;23.278;2023-05-16T01:07:00;94464.63;;;14.25;96.72
6435;BME280;3250;42.694;23.278;2023-05-16T01:09:26;94481.00;;;14.39;95.80
6435;BME280;3250;42.694;23.278;2023-05-16T01:20:08;94462.03;;;14.30;95.36
6435;BME280;3250;42.694;23.278;2023-05-16T01:22:51;94457.56;;;14.30;95.64
6435;BME280;3250;42.694;23.278;2023-05-16T01:25:56;94421.50;;;13.91;95.53
6435;BME280;3250;42.694;23.278;2023-05-16T01:28:23;94444.34;;;13.97;97.15
6435;BME280;3250;42.694;23.278;2023-05-16T01:30:50;94463.63;;;14.09;97.00
6435;BME280;3250;42.694;23.278;2023-05-16T01:33:16;94455.50;;;14.16;96.70
6435;BME280;3250;42.694;23.278;2023-05-16T01:36:19;94452.09;;;14.20;96.60
6435;BME280;3250;42.694;23.278;2023-05-16T01:39:02;94447.63;;;14.21;96.72
6435;BME280;3250;42.694;23.278;2023-05-16T01:44:19;94420.03;;;14.17;96.83
6435;BME280;3250;42.694;23.278;2023-05-16T01:46:48;94428.84;;;14.22;96.58
6435;BME280;3250;42.694;23.278;2023-05-16T01:49:22;94437.22;;;14.36;96.15
6435;BME280;3250;42.694;23.278;2023-05-16T01:52:14;94435.09;;;14.33;96.13
6435;BME280;3250;42.694;23.278;2023-05-16T01:54:44;94433.00;;;14.35;95.90
6435;BME280;3250;42.694;23.278;2023-05-16T01:57:12;94432.78;;;14.20;96.34
6435;BME280;3250;42.694;23.278;2023-05-16T01:59:38;94408.16;;;14.03;96.62
6435;BME280;3250;42.694;23.278;2023-05-16T02:02:04;94428.88;;;13.89;97.86
6435;BME280;3250;42.694;23.278;2023-05-16T02:04:30;94421.94;;;13.83;98.50
6435;BME280;3250;42.694;23.278;2023-05-16T02:06:55;94427.28;;;13.88;98.67
6435;BME280;3250;42.694;23.278;2023-05-16T02:09:21;94434.75;;;13.91;98.32
6435;BME280;3250;42.694;23.278;2023-05-16T02:11:46;94434.66;;;13.86;98.41
6435;BME280;3250;42.694;23.278;2023-05-16T02:14:12;94417.97;;;13.85;98.58
6435;BME280;3250;42.694;23.278;2023-05-16T02:16:38;94427.63;;;13.91;98.48
6435;BME280;3250;42.694;23.278;2023-05-16T02:19:03;94423.91;;;13.92;98.36
6435;BME280;3250;42.694;23.278;2023-05-16T02:21:29;94419.16;;;13.94;98.01
6435;BME280;3250;42.694;23.278;2023-05-16T02:23:55;94421.19;;;13.87;98.52
6435;BME280;3250;42.694;23.278;2023-05-16T02:26:20;94394.00;;;13.58;98.78
6435;BME280;3250;42.694;23.278;2023-05-16T02:28:46;94392.44;;;13.57;99.13
6435;BME280;3250;42.694;23.278;2023-05-16T02:31:24;94417.28;;;13.73;99.33
6435;BME280;3250;42.694;23.278;2023-05-16T02:33:50;94412.38;;;13.65;99.35
6435;BME280;3250;42.694;23.278;2023-05-16T02:36:15;94408.69;;;13.66;99.26
6435;BME280;3250;42.694;23.278;2023-05-16T02:38:40;94417.19;;;13.68;99.09
6435;BME280;3250;42.694;23.278;2023-05-16T02:41:06;94437.41;;;13.74;99.29
6435;BME280;3250;42.694;23.278;2023-05-16T02:43:31;94432.88;;;13.58;99.79
6435;BME280;3250;42.694;23.278;2023-05-16T02:45:57;94438.03;;;13.65;99.95
6435;BME280;3250;42.694;23.278;2023-05-16T02:48:22;94428.00;;;13.67;99.67
6435;BME280;3250;42.694;23.278;2023-05-16T02:50:47;94406.03;;;13.49;99.84
6435;BME280;3250;42.694;23.278;2023-05-16T02:53:13;94426.06;;;13.62;99.98
6435;BME280;3250;42.694;23.278;2023-05-16T02:55:38;94409.75;;;13.65;99.89
6435;BME280;3250;42.694;23.278;2023-05-16T02:58:04;94414.63;;;13.56;99.79
6435;BME280;3250;42.694;23.278;2023-05-16T03:00:29;94415.91;;;13.54;100.00
6435;BME280;3250;42.694;23.278;2023-05-16T03:02:54;94422.56;;;13.56;100.00
6435;BME280;3250;42.694;23.278;2023-05-16T03:05:20;94413.91;;;13.61;100.00
6435;BME280;3250;42.694;23.278;2023-05-16T03:07:45;94411.00;;;13.63;100.00
6435;BME280;3250;42.694;23.278;2023-05-16T03:10:11;94401.13;;;13.58;100.00
6435;BME280;3250;42.694;23.278;2023-05-16T03:12:36;94417.00;;;13.58;100.00
6435;BME280;3250;42.694;23.278;2023-05-16T03:15:01;94389.13;;;13.50;100.00
6435;BME280;3250;42.694;23.278;2023-05-16T03:17:28;94412.69;;;13.69;99.86
6435;BME280;3250;42.694;23.278;2023-05-16T03:19:53;94391.06;;;13.55;99.71
6435;BME280;3250;42.694;23.278;2023-05-16T03:22:19;94415.09;;;13.70;99.72
6435;BME280;3250;42.694;23.278;2023-05-16T03:24:44;94415.91;;;13.71;99.68
6435;BME280;3250;42.694;23.278;2023-05-16T03:27:10;94398.34;;;13.65;99.63
6435;BME280;3250;42.694;23.278;2023-05-16T03:29:36;94413.03;;;13.72;99.82
6435;BME280;3250;42.694;23.278;2023-05-16T03:32:01;94411.25;;;13.78;99.41
6435;BME280;3250;42.694;23.278;2023-05-16T03:34:26;94417.03;;;13.75;99.10
6435;BME280;3250;42.694;23.278;2023-05-16T03:36:52;94407.72;;;13.72;99.48
6435;BME280;3250;42.694;23.278;2023-05-16T03:39:18;94408.84;;;13.76;99.59
6435;BME280;3250;42.694;23.278;2023-05-16T03:41:43;94403.72;;;13.70;99.12
6435;BME280;3250;42.694;23.278;2023-05-16T03:44:09;94386.25;;;13.52;99.84
6435;BME280;3250;42.694;23.278;2023-05-16T03:46:35;94389.78;;;13.57;100.00
6435;BME280;3250;42.694;23.278;2023-05-16T03:49:01;94402.34;;;13.67;100.00
6435;BME280;3250;42.694;23.278;2023-05-16T03:51:26;94394.34;;;13.62;99.73
6435;BME280;3250;42.694;23.278;2023-05-16T03:53:52;94406.34;;;13.70;99.87
6435;BME280;3250;42.694;23.278;2023-05-16T03:56:18;94403.72;;;13.70;99.92
6435;BME280;3250;42.694;23.278;2023-05-16T03:58:43;94410.38;;;13.72;100.00
6435;BME280;3250;42.694;23.278;2023-05-16T04:01:09;94398.34;;;13.65;100.00
6435;BME280;3250;42.694;23.278;2023-05-16T04:03:34;94393.69;;;13.55;100.00
6435;BME280;3250;42.694;23.278;2023-05-16T04:06:00;94401.72;;;13.60;100.00
6435;BME280;3250;42.694;23.278;2023-05-16T04:08:25;94395.31;;;13.56;100.00
6435;BME280;3250;42.694;23.278;2023-05-16T04:10:51;94414.53;;;13.68;100.00
6435;BME280;3250;42.694;23.278;2023-05-16T04:13:17;94420.06;;;13.67;100.00
6435;BME280;3250;42.694;23.278;2023-05-16T04:15:42;94396.00;;;13.51;100.00
6435;BME280;3250;42.694;23.278;2023-05-16T04:18:08;94397.97;;;13.56;100.00
6435;BME280;3250;42.694;23.278;2023-05-16T04:20:33;94404.91;;;13.62;100.00
6435;BME280;3250;42.694;23.278;2023-05-16T04:23:00;94408.44;;;13.68;100.00
6435;BME280;3250;42.694;23.278;2023-05-16T04:25:25;94404.69;;;13.64;100.00
6435;BME280;3250;42.694;23.278;2023-05-16T04:27:51;94409.47;;;13.67;100.00
6435;BME280;3250;42.694;23.278;2023-05-16T04:30:16;94399.16;;;13.65;100.00
6435;BME280;3250;42.694;23.278;2023-05-16T04:32:42;94390.16;;;13.49;100.00
6435;BME280;3250;42.694;23.278;2023-05-16T04:35:07;94374.78;;;13.46;100.00
6435;BME280;3250;42.694;23.278;2023-05-16T04:37:33;94392.03;;;13.66;100.00
6435;BME280;3250;42.694;23.278;2023-05-16T04:40:00;94411.81;;;13.80;100.00
6435;BME280;3250;42.694;23.278;2023-05-16T04:42:25;94402.59;;;13.82;100.00
6435;BME280;3250;42.694;23.278;2023-05-16T04:44:51;94409.41;;;13.78;100.00
6435;BME280;3250;42.694;23.278;2023-05-16T04:47:16;94379.72;;;13.76;100.00
6435;BME280;3250;42.694;23.278;2023-05-16T04:49:42;94400.66;;;13.94;100.00
6435;BME280;3250;42.694;23.278;2023-05-16T04:52:07;94406.44;;;13.91;100.00
6435;BME280;3250;42.694;23.278;2023-05-16T04:54:33;94377.59;;;13.73;100.00
6435;BME280;3250;42.694;23.278;2023-05-16T04:56:58;94405.25;;;13.82;100.00
6435;BME280;3250;42.694;23.278;2023-05-16T04:59:24;94394.72;;;13.87;100.00
6435;BME280;3250;42.694;23.278;2023-05-16T05:01:49;94391.84;;;13.89;100.00
6435;BME280;3250;42.694;23.278;2023-05-16T05:04:15;94398.72;;;14.07;99.68
6435;BME280;3250;42.694;23.278;2023-05-16T05:06:42;94374.19;;;13.94;99.61
6435;BME280;3250;42.694;23.278;2023-05-16T05:09:07;94365.59;;;14.04;98.37
6435;BME280;3250;42.694;23.278;2023-05-16T05:11:33;94400.09;;;14.31;97.00
6435;BME280;3250;42.694;23.278;2023-05-16T05:13:58;94409.66;;;14.32;96.94
6435;BME280;3250;42.694;23.278;2023-05-16T05:16:23;94407.66;;;14.39;95.74
6435;BME280;3250;42.694;23.278;2023-05-16T05:18:49;94366.47;;;14.31;94.47
6435;BME280;3250;42.694;23.278;2023-05-16T05:21:14;94395.97;;;14.57;94.56
6435;BME280;3250;42.694;23.278;2023-05-16T05:23:40;94384.72;;;14.71;92.42
6435;BME280;3250;42.694;23.278;2023-05-16T05:26:05;94376.84;;;14.77;91.74
6435;BME280;3250;42.694;23.278;2023-05-16T05:28:31;94402.63;;;15.08;90.01
6435;BME280;3250;42.694;23.278;2023-05-16T05:30:56;94377.63;;;14.99;90.15
6435;BME280;3250;42.694;23.278;2023-05-16T05:33:26;94352.84;;;14.88;90.23
6435;BME280;3250;42.694;23.278;2023-05-16T05:35:53;94373.66;;;15.01;89.95
6435;BME280;3250;42.694;23.278;2023-05-16T05:38:19;94369.53;;;15.10;89.61
6435;BME280;3250;42.694;23.278;2023-05-16T05:40:45;94381.56;;;15.23;89.37
6435;BME280;3250;42.694;23.278;2023-05-16T05:43:10;94376.47;;;15.17;89.54
6435;BME280;3250;42.694;23.278;2023-05-16T05:45:36;94377.13;;;15.29;88.90
6435;BME280;3250;42.694;23.278;2023-05-16T05:48:01;94371.81;;;15.29;88.82
6435;BME280;3250;42.694;23.278;2023-05-16T05:50:27;94362.47;;;15.21;88.96
6435;BME280;3250;42.694;23.278;2023-05-16T05:52:54;94372.66;;;15.34;88.57
6435;BME280;3250;42.694;23.278;2023-05-16T05:55:19;94374.75;;;15.32;88.95
6435;BME280;3250;42.694;23.278;2023-05-16T05:57:45;94375.34;;;15.39;88.64
6435;BME280;3250;42.694;23.278;2023-05-16T06:00:11;94372.41;;;15.36;88.44
6435;BME280;3250;42.694;23.278;2023-05-16T06:02:37;94358.34;;;15.35;88.21
6435;BME280;3250;42.694;23.278;2023-05-16T06:05:02;94362.59;;;15.36;88.26
6435;BME280;3250;42.694;23.278;2023-05-16T06:07:27;94382.34;;;15.51;88.15
6435;BME280;3250;42.694;23.278;2023-05-16T06:09:53;94345.59;;;15.32;87.88
6435;BME280;3250;42.694;23.278;2023-05-16T06:12:18;94367.94;;;15.41;87.93
6435;BME280;3250;42.694;23.278;2023-05-16T06:14:45;94342.09;;;15.27;87.94
6435;BME280;3250;42.694;23.278;2023-05-16T06:17:10;94382.34;;;15.51;88.09
6435;BME280;3250;42.694;23.278;2023-05-16T06:19:36;94356.50;;;15.36;88.08
6435;BME280;3250;42.694;23.278;2023-05-16T06:22:01;94374.13;;;15.52;88.38
6435;BME280;3250;42.694;23.278;2023-05-16T06:24:27;94349.84;;;15.33;88.31
6435;BME280;3250;42.694;23.278;2023-05-16T06:26:54;94378.88;;;15.50;87.86
6435;BME280;3250;42.694;23.278;2023-05-16T06:29:19;94349.59;;;15.35;87.29
6435;BME280;3250;42.694;23.278;2023-05-16T06:31:44;94362.06;;;15.39;87.70
6435;BME280;3250;42.694;23.278;2023-05-16T06:34:11;94352.22;;;15.30;88.07
6435;BME280;3250;42.694;23.278;2023-05-16T06:36:37;94371.44;;;15.47;87.69
6435;BME280;3250;42.694;23.278;2023-05-16T06:39:02;94332.78;;;15.24;87.69
6435;BME280;3250;42.694;23.278;2023-05-16T06:41:29;94338.72;;;15.36;87.40
6435;BME280;3250;42.694;23.278;2023-05-16T06:43:54;94363.31;;;15.54;87.19
6435;BME280;3250;42.694;23.278;2023-05-16T06:46:19;94329.41;;;15.34;87.26
6435;BME280;3250;42.694;23.278;2023-05-16T06:48:45;94362.53;;;15.58;86.74
6435;BME280;3250;42.694;23.278;2023-05-16T06:51:10;94345.06;;;15.62;86.02
6435;BME280;3250;42.694;23.278;2023-05-16T06:53:36;94348.03;;;15.71;85.62
6435;BME280;3250;42.694;23.278;2023-05-16T06:56:01;94319.59;;;15.61;85.09
6435;BME280;3250;42.694;23.278;2023-05-16T06:58:27;94328.16;;;15.73;85.19
6435;BME280;3250;42.694;23.278;2023-05-16T07:00:52;94325.53;;;15.78;85.20
6435;BME280;3250;42.694;23.278;2023-05-16T07:03:18;94317.03;;;15.76;84.93
6435;BME280;3250;42.694;23.278;2023-05-16T07:05:43;94309.88;;;15.77;84.81
6435;BME280;3250;42.694;23.278;2023-05-16T07:08:08;94316.75;;;15.73;84.60
6435;BME280;3250;42.694;23.278;2023-05-16T07:10:36;94317.34;;;15.85;84.85
6435;BME280;3250;42.694;23.278;2023-05-16T07:13:01;94304.06;;;15.85;84.49
6435;BME280;3250;42.694;23.278;2023-05-16T07:15:27;94305.97;;;15.90;84.25
6435;BME280;3250;42.694;23.278;2023-05-16T07:17:52;94322.72;;;16.00;84.36
6435;BME280;3250;42.694;23.278;2023-05-16T07:20:17;94305.47;;;15.98;83.63
6435;BME280;3250;42.694;23.278;2023-05-16T07:22:43;94283.47;;;16.02;82.79
6435;BME280;3250;42.694;23.278;2023-05-16T07:25:08;94258.75;;;15.97;81.92
6435;BME280;3250;42.694;23.278;2023-05-16T07:27:40;94298.97;;;16.26;81.75
6435;BME280;3250;42.694;23.278;2023-05-16T07:30:08;94292.34;;;16.28;82.15
6435;BME280;3250;42.694;23.278;2023-05-16T07:32:34;94310.44;;;16.36;82.01
6435;BME280;3250;42.694;23.278;2023-05-16T07:34:59;94299.28;;;16.34;81.68
6435;BME280;3250;42.694;23.278;2023-05-16T07:37:25;94326.66;;;16.40;81.83
6435;BME280;3250;42.694;23.278;2023-05-16T07:39:50;94330.13;;;16.40;82.16
6435;BME280;3250;42.694;23.278;2023-05-16T07:42:15;94334.13;;;16.43;81.66
6435;BME280;3250;42.694;23.278;2023-05-16T07:44:41;94352.97;;;16.41;81.49
6435;BME280;3250;42.694;23.278;2023-05-16T07:47:06;94345.25;;;16.40;81.35
6435;BME280;3250;42.694;23.278;2023-05-16T07:49:32;94308.56;;;16.32;80.88
6435;BME280;3250;42.694;23.278;2023-05-16T07:51:57;94305.06;;;16.26;80.64
6435;BME280;3250;42.694;23.278;2023-05-16T07:54:22;94327.69;;;16.34;80.42
6435;BME280;3250;42.694;23.278;2023-05-16T07:56:48;94344.25;;;16.51;80.49
6435;BME280;3250;42.694;23.278;2023-05-16T07:59:13;94324.34;;;16.58;80.08
6435;BME280;3250;42.694;23.278;2023-05-16T08:01:39;94307.59;;;16.58;79.77
6435;BME280;3250;42.694;23.278;2023-05-16T08:04:05;94303.88;;;16.59;79.51
6435;BME280;3250;42.694;23.278;2023-05-16T08:06:31;94300.75;;;16.67;79.58
6435;BME280;3250;42.694;23.278;2023-05-16T08:08:56;94296.50;;;16.66;79.84
6435;BME280;3250;42.694;23.278;2023-05-16T08:11:22;94295.16;;;16.74;79.81
6435;BME280;3250;42.694;23.278;2023-05-16T08:13:48;94284.00;;;16.72;79.59
6435;BME280;3250;42.694;23.278;2023-05-16T08:16:13;94254.44;;;16.58;79.97
6435;BME280;3250;42.694;23.278;2023-05-16T08:18:39;94275.78;;;16.88;79.62
6435;BME280;3250;42.694;23.278;2023-05-16T08:21:04;94281.66;;;16.90;79.00
6435;BME280;3250;42.694;23.278;2023-05-16T08:23:30;94300.25;;;16.85;79.26
6435;BME280;3250;42.694;23.278;2023-05-16T08:25:55;94295.19;;;16.84;79.45
6435;BME280;3250;42.694;23.278;2023-05-16T08:28:21;94256.34;;;16.63;79.40
6435;BME280;3250;42.694;23.278;2023-05-16T08:30:46;94294.41;;;16.88;79.05
6435;BME280;3250;42.694;23.278;2023-05-16T08:33:12;94265.41;;;16.82;78.95
6435;BME280;3250;42.694;23.278;2023-05-16T08:35:42;94287.75;;;16.86;78.72
6435;BME280;3250;42.694;23.278;2023-05-16T08:38:08;94276.34;;;16.85;78.93
6435;BME280;3250;42.694;23.278;2023-05-16T08:40:33;94280.31;;;16.83;79.05
6435;BME280;3250;42.694;23.278;2023-05-16T08:42:59;94292.28;;;17.01;78.81
6435;BME280;3250;42.694;23.278;2023-05-16T08:45:25;94302.41;;;17.09;78.08
6435;BME280;3250;42.694;23.278;2023-05-16T08:47:53;94287.25;;;17.09;78.17
6435;BME280;3250;42.694;23.278;2023-05-16T08:50:19;94270.78;;;17.12;77.93
6435;BME280;3250;42.694;23.278;2023-05-16T08:52:46;94302.44;;;17.34;76.70
6435;BME280;3250;42.694;23.278;2023-05-16T08:55:12;94269.97;;;17.42;76.08
6435;BME280;3250;42.694;23.278;2023-05-16T08:57:39;94289.38;;;17.58;76.37
6435;BME280;3250;42.694;23.278;2023-05-16T09:00:08;94293.63;;;17.74;75.80
6435;BME280;3250;42.694;23.278;2023-05-16T09:02:40;94294.69;;;17.88;75.48
6435;BME280;3250;42.694;23.278;2023-05-16T09:05:11;94293.34;;;17.86;74.48
6435;BME280;3250;42.694;23.278;2023-05-16T09:07:37;94293.34;;;17.91;75.06
6435;BME280;3250;42.694;23.278;2023-05-16T09:10:03;94268.63;;;17.80;74.67
6435;BME280;3250;42.694;23.278;2023-05-16T09:12:31;94262.25;;;17.71;75.13
6435;BME280;3250;42.694;23.278;2023-05-16T09:14:57;94277.09;;;17.92;75.06
6435;BME280;3250;42.694;23.278;2023-05-16T09:17:22;94288.00;;;17.96;75.65
6435;BME280;3250;42.694;23.278;2023-05-16T09:19:48;94297.31;;;18.03;75.12
6435;BME280;3250;42.694;23.278;2023-05-16T09:22:17;94279.47;;;17.94;74.47
6435;BME280;3250;42.694;23.278;2023-05-16T09:24:44;94302.09;;;18.06;74.15
6435;BME280;3250;42.694;23.278;2023-05-16T09:27:14;94297.28;;;18.08;74.34
6435;BME280;3250;42.694;23.278;2023-05-16T09:29:42;94294.66;;;17.98;73.68
6435;BME280;3250;42.694;23.278;2023-05-16T09:32:15;94311.16;;;18.05;74.40
6435;BME280;3250;42.694;23.278;2023-05-16T09:34:45;94280.28;;;17.94;74.15
6435;BME280;3250;42.694;23.278;2023-05-16T09:37:13;94282.09;;;18.14;74.22
6435;BME280;3250;42.694;23.278;2023-05-16T09:39:46;94275.41;;;18.22;73.76
6435;BME280;3250;42.694;23.278;2023-05-16T09:42:13;94278.59;;;18.24;73.17
6435;BME280;3250;42.694;23.278;2023-05-16T09:44:39;94255.47;;;18.14;72.88
6435;BME280;3250;42.694;23.278;2023-05-16T09:47:04;94244.34;;;17.97;73.45
6435;BME280;3250;42.694;23.278;2023-05-16T09:49:30;94270.66;;;18.14;73.43
6435;BME280;3250;42.694;23.278;2023-05-16T09:52:00;94286.84;;;18.27;73.82
6435;BME280;3250;42.694;23.278;2023-05-16T09:54:32;94283.09;;;18.33;73.51
6435;BME280;3250;42.694;23.278;2023-05-16T09:56:58;94247.47;;;18.09;73.70
6435;BME280;3250;42.694;23.278;2023-05-16T09:59:24;94278.28;;;18.35;73.83
6435;BME280;3250;42.694;23.278;2023-05-16T10:01:51;94256.50;;;18.23;73.67
6435;BME280;3250;42.694;23.278;2023-05-16T10:04:20;94269.22;;;18.41;72.31
6435;BME280;3250;42.694;23.278;2023-05-16T10:06:46;94279.53;;;18.53;72.56
6435;BME280;3250;42.694;23.278;2023-05-16T10:09:15;94275.50;;;18.66;71.99
6435;BME280;3250;42.694;23.278;2023-05-16T10:11:41;94284.81;;;18.68;72.25
6435;BME280;3250;42.694;23.278;2023-05-16T10:14:10;94279.72;;;18.72;72.00
6435;BME280;3250;42.694;23.278;2023-05-16T10:16:36;94268.03;;;18.68;71.52
6435;BME280;3250;42.694;23.278;2023-05-16T10:19:02;94282.88;;;18.79;71.57
6435;BME280;3250;42.694;23.278;2023-05-16T10:21:28;94288.25;;;18.74;72.02
6435;BME280;3250;42.694;23.278;2023-05-16T10:23:57;94274.50;;;18.57;71.89
6435;BME280;3250;42.694;23.278;2023-05-16T10:26:24;94265.66;;;18.56;72.08
6435;BME280;3250;42.694;23.278;2023-05-16T10:28:51;94291.81;;;18.59;72.00
6435;BME280;3250;42.694;23.278;2023-05-16T10:31:17;94286.75;;;18.47;71.99
6435;BME280;3250;42.694;23.278;2023-05-16T10:33:43;94264.41;;;18.38;72.25
6435;BME280;3250;42.694;23.278;2023-05-16T10:36:09;94246.06;;;18.27;73.21
6435;BME280;3250;42.694;23.278;2023-05-16T10:38:36;94242.91;;;18.25;73.93
6435;BME280;3250;42.694;23.278;2023-05-16T10:41:02;94248.22;;;18.25;74.87
6435;BME280;3250;42.694;23.278;2023-05-16T10:43:29;94247.69;;;18.23;75.23
6435;BME280;3250;42.694;23.278;2023-05-16T10:46:06;94225.59;;;18.22;75.93
6435;BME280;3250;42.694;23.278;2023-05-16T10:48:39;94228.47;;;18.31;75.53
6435;BME280;3250;42.694;23.278;2023-05-16T10:53:46;94224.94;;;18.45;75.51
6435;BME280;3250;42.694;23.278;2023-05-16T10:56:12;94214.56;;;18.39;74.60
6435;BME280;3250;42.694;23.278;2023-05-16T11:06:24;94249.44;;;18.58;74.71
6435;BME280;3250;42.694;23.278;2023-05-16T11:09:06;94269.69;;;18.59;74.47
6435;BME280;3250;42.694;23.278;2023-05-16T11:11:42;94284.09;;;18.58;74.47
6435;BME280;3250;42.694;23.278;2023-05-16T11:14:08;94289.41;;;18.58;75.11
6435;BME280;3250;42.694;23.278;2023-05-16T11:16:35;94298.72;;;18.55;75.92
6435;BME280;3250;42.694;23.278;2023-05-16T11:19:07;94287.84;;;18.46;76.43
6435;BME280;3250;42.694;23.278;2023-05-16T11:22:06;94295.78;;;18.52;76.93
6435;BME280;3250;42.694;23.278;2023-05-16T11:24:32;94290.22;;;18.48;77.34
6435;BME280;3250;42.694;23.278;2023-05-16T11:26:59;94268.91;;;18.48;76.15
6435;BME280;3250;42.694;23.278;2023-05-16T11:29:31;94289.63;;;18.66;74.53
6435;BME280;3250;42.694;23.278;2023-05-16T11:31:59;94266.50;;;18.57;74.33
6435;BME280;3250;42.694;23.278;2023-05-16T11:34:24;94272.03;;;18.65;74.46
6435;BME280;3250;42.694;23.278;2023-05-16T11:36:50;94280.31;;;18.64;74.63
6435;BME280;3250;42.694;23.278;2023-05-16T11:39:16;94249.69;;;18.51;74.72
6435;BME280;3250;42.694;23.278;2023-05-16T11:41:43;94246.78;;;18.47;75.62
6435;BME280;3250;42.694;23.278;2023-05-16T11:44:10;94268.03;;;18.63;76.13
6435;BME280;3250;42.694;23.278;2023-05-16T11:46:38;94283.25;;;18.62;75.85
6435;BME280;3250;42.694;23.278;2023-05-16T11:49:05;94274.94;;;18.69;76.80
6435;BME280;3250;42.694;23.278;2023-05-16T11:51:32;94228.66;;;18.44;77.25
6435;BME280;3250;42.694;23.278;2023-05-16T11:53:59;94272.81;;;18.71;78.07
6435;BME280;3250;42.694;23.278;2023-05-16T11:56:26;94274.94;;;18.74;78.70
6435;BME280;3250;42.694;23.278;2023-05-16T11:58:51;94263.72;;;18.72;78.93
6435;BME280;3250;42.694;23.278;2023-05-16T12:01:17;94237.88;;;18.72;78.35
6435;BME280;3250;42.694;23.278;2023-05-16T12:03:43;94242.03;;;18.89;78.44
6435;BME280;3250;42.694;23.278;2023-05-16T12:06:08;94245.09;;;19.06;77.37
6435;BME280;3250;42.694;23.278;2023-05-16T12:08:34;94241.72;;;19.29;76.93
6435;BME280;3250;42.694;23.278;2023-05-16T12:11:00;94221.41;;;19.33;75.51
6435;BME280;3250;42.694;23.278;2023-05-16T12:13:26;94215.19;;;19.43;75.71
6435;BME280;3250;42.694;23.278;2023-05-16T12:15:52;94238.75;;;19.65;75.79
6435;BME280;3250;42.694;23.278;2023-05-16T12:18:18;94245.31;;;19.77;74.62
6435;BME280;3250;42.694;23.278;2023-05-16T12:20:45;94218.16;;;19.70;73.59
6435;BME280;3250;42.694;23.278;2023-05-16T12:23:13;94242.75;;;19.91;73.71
6435;BME280;3250;42.694;23.278;2023-05-16T12:25:44;94244.31;;;19.97;73.93
6435;BME280;3250;42.694;23.278;2023-05-16T12:28:13;94237.03;;;20.03;73.94
6435;BME280;3250;42.694;23.278;2023-05-16T12:30:41;94236.47;;;20.06;73.19
6435;BME280;3250;42.694;23.278;2023-05-16T12:33:09;94232.69;;;20.07;73.30
6435;BME280;3250;42.694;23.278;2023-05-16T12:35:38;94241.75;;;20.11;72.24
6435;BME280;3250;42.694;23.278;2023-05-16T12:38:09;94238.03;;;20.07;72.37
6435;BME280;3250;42.694;23.278;2023-05-16T12:40:36;94242.72;;;19.96;72.75
6435;BME280;3250;42.694;23.278;2023-05-16T12:43:01;94247.88;;;19.87;73.14
6435;BME280;3250;42.694;23.278;2023-05-16T12:45:27;94246.91;;;19.78;73.40
6435;BME280;3250;42.694;23.278;2023-05-16T12:47:53;94241.13;;;19.66;74.51
6435;BME280;3250;42.694;23.278;2023-05-16T12:50:19;94233.00;;;19.52;75.41
6435;BME280;3250;42.694;23.278;2023-05-16T12:52:52;94227.19;;;19.45;75.98
6435;BME280;3250;42.694;23.278;2023-05-16T12:55:21;94219.19;;;19.40;77.29
6435;BME280;3250;42.694;23.278;2023-05-16T12:57:48;94243.75;;;19.42;78.55
6435;BME280;3250;42.694;23.278;2023-05-16T13:00:15;94246.22;;;19.34;79.56
6435;BME280;3250;42.694;23.278;2023-05-16T13:02:43;94242.56;;;19.25;80.24
6435;BME280;3250;42.694;23.278;2023-05-16T13:05:08;94256.44;;;19.21;80.76
6435;BME280;3250;42.694;23.278;2023-05-16T13:07:37;94232.34;;;18.98;80.83
6435;BME280;3250;42.694;23.278;2023-05-16T13:10:08;94258.16;;;19.07;80.93
6435;BME280;3250;42.694;23.278;2023-05-16T13:12:40;94243.34;;;18.91;81.14
6435;BME280;3250;42.694;23.278;2023-05-16T13:15:07;94255.03;;;18.95;81.14
6435;BME280;3250;42.694;23.278;2023-05-16T13:17:33;94242.63;;;18.80;81.58
6435;BME280;3250;42.694;23.278;2023-05-16T13:19:59;94242.03;;;18.89;81.61
6435;BME280;3250;42.694;23.278;2023-05-16T13:22:24;94243.94;;;18.83;81.86
6435;BME280;3250;42.694;23.278;2023-05-16T13:24:50;94234.44;;;18.67;81.31
6435;BME280;3250;42.694;23.278;2023-05-16T13:27:16;94229.91;;;18.67;81.64
6435;BME280;3250;42.694;23.278;2023-05-16T13:29:44;94247.47;;;18.73;81.62